Time;durP1;ratioP1;P1;durP2;ratioP2;P2;SDS_P1;SDS_P2;PMS_P1;PMS_P2;Temp;Humidity;BMP_temperature;BMP_pressure;BME280_temperature;BME280_humidity;BME280_pressure;Samples;Min_cycle;Max_cycle;Signal;HPM_P1;HPM_P2
2023/09/04 00:02:05;;;;;;;5.28;2.67;;;;;;;18.24;53.51;100472.91;7684760;32;39700;-82
2023/09/04 00:06:21;;;;;;;6.12;3.08;;;;;;;18.53;52.49;100483.63;7684551;32;39901;-83
2023/09/04 00:10:37;;;;;;;4.43;2.90;;;;;;;18.16;53.24;100486.28;7684482;32;38004;-83
2023/09/04 00:14:54;;;;;;;5.80;2.78;;;;;;;18.06;53.77;100469.09;7683272;32;37131;-82
2023/09/04 00:19:10;;;;;;;4.90;3.00;;;;;;;17.97;53.95;100478.09;7684502;32;40002;-82
2023/09/04 00:23:27;;;;;;;3.92;3.00;;;;;;;17.81;54.35;100483.03;7684195;32;40945;-82
2023/09/04 00:27:43;;;;;;;3.80;2.70;;;;;;;17.48;55.43;100482.25;7684291;32;37918;-82
2023/09/04 00:32:02;;;;;;;3.65;2.78;;;;;;;17.79;54.50;100490.78;7683001;32;36939;-83
2023/09/04 00:36:18;;;;;;;4.43;3.20;;;;;;;17.45;55.27;100472.66;7684176;32;38894;-82
2023/09/04 00:40:35;;;;;;;5.32;3.28;;;;;;;17.88;54.09;100473.59;7683351;32;40830;-80
2023/09/04 00:44:51;;;;;;;5.10;3.05;;;;;;;17.37;55.80;100472.50;7683240;32;37888;-82
2023/09/04 00:49:08;;;;;;;4.85;3.37;;;;;;;17.59;54.99;100472.69;7683877;32;37777;-83
2023/09/04 00:53:25;;;;;;;5.20;2.90;;;;;;;17.77;54.76;100478.44;7683760;32;38941;-82
2023/09/04 00:57:43;;;;;;;8.50;3.35;;;;;;;17.74;55.24;100468.81;7682340;32;39906;-82
2023/09/04 01:02:00;;;;;;;5.15;3.15;;;;;;;17.90;55.05;100466.66;7683544;32;37853;-82
2023/09/04 01:06:17;;;;;;;4.65;3.12;;;;;;;17.60;56.17;100471.53;7683386;32;37772;-81
2023/09/04 01:11:17;;;;;;;4.90;3.20;;;;;;;17.59;56.45;100464.41;7683363;32;39992;-83
2023/09/04 01:15:33;;;;;;;4.93;3.28;;;;;;;17.46;56.80;100451.41;7673594;32;39906;-82
2023/09/04 01:19:49;;;;;;;5.78;3.20;;;;;;;17.59;56.40;100466.34;7681847;32;38088;-82
2023/09/04 01:24:09;;;;;;;5.93;3.60;;;;;;;17.53;56.79;100467.56;7682972;32;36998;-81
2023/09/04 01:28:33;;;;;;;7.60;3.20;;;;;;;17.68;56.29;100463.69;7683022;32;39986;-82
2023/09/04 01:32:56;;;;;;;5.00;3.28;;;;;;;17.62;56.66;100466.53;7681692;32;40874;-83
2023/09/04 01:37:13;;;;;;;6.05;3.08;;;;;;;17.53;56.60;100482.16;7681673;32;37951;-82
2023/09/04 01:41:29;;;;;;;4.55;3.03;;;;;;;17.45;56.69;100469.88;7681172;32;37725;-82
2023/09/04 01:45:46;;;;;;;5.70;3.33;;;;;;;17.50;56.26;100482.75;7682364;32;39989;-82
2023/09/04 01:50:02;;;;;;;4.85;3.08;;;;;;;17.48;56.03;100471.22;7682480;32;39907;-82
2023/09/04 01:54:18;;;;;;;5.45;3.10;;;;;;;17.58;55.77;100476.56;7684173;32;37717;-82
2023/09/04 01:58:35;;;;;;;5.65;3.40;;;;;;;17.25;56.56;100478.50;7686108;32;37153;-82
2023/09/04 02:02:51;;;;;;;6.10;3.35;;;;;;;17.29;56.41;100496.03;7685945;32;40127;-81
2023/09/04 02:07:07;;;;;;;5.93;3.35;;;;;;;17.46;55.71;100490.81;7685966;32;40875;-82
2023/09/04 02:11:24;;;;;;;5.35;3.30;;;;;;;17.05;56.93;100496.12;7672261;32;38038;-82
2023/09/04 02:15:40;;;;;;;4.35;3.08;;;;;;;17.02;57.19;100488.47;7686110;32;36985;-82
2023/09/04 02:19:58;;;;;;;6.40;3.58;;;;;;;17.18;56.71;100481.63;7685981;32;39908;-82
2023/09/04 02:24:14;;;;;;;5.75;3.12;;;;;;;17.01;57.00;100495.09;7685700;32;39933;-82
2023/09/04 02:28:31;;;;;;;4.62;3.10;;;;;;;17.11;56.73;100500.47;7685729;32;38480;-82
2023/09/04 02:32:47;;;;;;;6.03;3.35;;;;;;;17.17;56.48;100495.69;7685375;32;36854;-82
2023/09/04 02:37:04;;;;;;;8.02;3.47;;;;;;;16.89;57.10;100499.09;7685722;32;40108;-83
2023/09/04 02:41:20;;;;;;;4.57;3.10;;;;;;;16.92;56.77;100497.72;7685701;32;39968;-83
2023/09/04 02:45:36;;;;;;;4.97;3.30;;;;;;;16.91;56.89;100500.75;7685453;32;37691;-82
2023/09/04 02:49:53;;;;;;;6.12;3.55;;;;;;;17.02;56.27;100496.72;7685563;32;37620;-82
2023/09/04 02:54:09;;;;;;;5.30;3.20;;;;;;;17.06;56.36;100495.84;7685247;32;39267;-82
2023/09/04 02:58:25;;;;;;;5.32;2.97;;;;;;;17.03;56.68;100504.69;7685412;32;39944;-82
2023/09/04 03:02:41;;;;;;;4.50;3.05;;;;;;;16.80;57.15;100500.03;7685435;32;38830;-82
2023/09/04 03:06:58;;;;;;;4.50;3.08;;;;;;;16.73;57.44;100505.94;7685008;32;36963;-82
2023/09/04 03:11:14;;;;;;;5.57;3.47;;;;;;;16.60;57.74;100509.41;7685416;32;39903;-82
2023/09/04 03:15:30;;;;;;;5.05;3.35;;;;;;;16.79;57.43;100512.19;7685283;32;39629;-81
2023/09/04 03:19:47;;;;;;;5.90;3.50;;;;;;;16.84;57.34;100520.41;7685262;32;37985;-82
2023/09/04 03:24:03;;;;;;;5.62;3.20;;;;;;;16.88;57.30;100507.66;7684056;32;37066;-82
2023/09/04 03:28:20;;;;;;;6.72;3.58;;;;;;;16.57;57.66;100509.97;7685183;32;40050;-83
2023/09/04 03:32:37;;;;;;;4.93;3.47;;;;;;;16.39;58.20;100517.09;7685163;32;40922;-81
2023/09/04 03:36:53;;;;;;;6.68;3.50;;;;;;;16.44;57.97;100509.56;7684932;32;38775;-82
2023/09/04 03:41:09;;;;;;;5.43;3.42;;;;;;;16.20;58.68;100517.03;7685034;32;37015;-82
2023/09/04 03:45:31;;;;;;;6.03;3.30;;;;;;;16.11;58.92;100516.84;7684753;32;39666;-82
2023/09/04 03:49:48;;;;;;;19.40;3.53;;;;;;;16.17;58.56;100525.84;7683801;32;39734;-82
2023/09/04 03:54:04;;;;;;;7.75;3.67;;;;;;;16.16;58.35;100533.28;7684603;32;38785;-81
2023/09/04 03:58:20;;;;;;;6.75;3.12;;;;;;;16.45;57.69;100524.16;7684844;32;37491;-81
2023/09/04 04:02:38;;;;;;;5.50;3.40;;;;;;;16.51;57.38;100521.03;7684798;32;40047;-82
2023/09/04 04:06:55;;;;;;;9.52;3.50;;;;;;;16.52;57.60;100525.44;7684610;32;39919;-81
2023/09/04 04:11:12;;;;;;;4.28;3.20;;;;;;;16.51;57.72;100532.06;7684452;32;38783;-82
2023/09/04 04:15:28;;;;;;;7.25;4.00;;;;;;;16.29;58.53;100534.53;7683835;32;37657;-82
2023/09/04 04:19:44;;;;;;;6.37;3.37;;;;;;;16.34;58.22;100531.72;7684407;32;38918;-81
2023/09/04 04:24:00;;;;;;;4.97;3.53;;;;;;;16.35;58.36;100544.38;7683353;32;39733;-81
2023/09/04 04:28:20;;;;;;;6.50;3.40;;;;;;;16.51;57.88;100547.75;7684191;32;38086;-81
2023/09/04 04:32:38;;;;;;;7.43;3.75;;;;;;;16.37;58.07;100547.62;7684318;32;37834;-82
2023/09/04 04:36:56;;;;;;;6.90;3.87;;;;;;;16.46;58.12;100561.56;7683865;32;40469;-82
2023/09/04 04:41:13;;;;;;;5.28;3.33;;;;;;;16.40;58.38;100568.22;7684022;32;41894;-81
2023/09/04 04:45:29;;;;;;;4.55;3.17;;;;;;;16.47;58.14;100565.94;7676498;32;231441;-82
2023/09/04 04:49:47;;;;;;;6.15;3.70;;;;;;;16.26;58.60;100568.09;7683887;32;37182;-81
2023/09/04 04:54:03;;;;;;;7.32;3.90;;;;;;;16.02;59.41;100579.87;7683771;32;39231;-81
2023/09/04 04:58:20;;;;;;;5.90;3.33;;;;;;;16.14;59.17;100588.59;7683612;32;40006;-82
2023/09/04 05:02:37;;;;;;;6.80;3.83;;;;;;;16.23;58.76;100587.94;7683436;32;37654;-82
2023/09/04 05:06:53;;;;;;;8.00;3.53;;;;;;;16.17;59.62;100592.69;7683406;32;37046;-81
2023/09/04 05:11:09;;;;;;;8.70;3.40;;;;;;;16.25;59.31;100594.00;7683425;32;39975;-82
2023/09/04 05:15:26;;;;;;;7.97;3.55;;;;;;;16.50;58.60;100590.94;7683141;32;39994;-81
2023/09/04 05:19:42;;;;;;;5.22;3.90;;;;;;;16.38;59.15;100585.03;7682704;32;38724;-81
2023/09/04 05:23:58;;;;;;;7.00;3.83;;;;;;;16.65;58.85;100594.66;7683058;32;36744;-79
2023/09/04 05:28:14;;;;;;;6.97;3.90;;;;;;;16.88;58.21;100590.28;7683803;32;39037;-81
2023/09/04 05:32:31;;;;;;;9.57;3.95;;;;;;;16.78;62.75;100598.62;7686193;32;40059;-81
2023/09/04 05:36:48;;;;;;;6.32;3.78;;;;;;;16.88;60.06;100598.53;7685712;32;38901;-80
2023/09/04 05:41:04;;;;;;;6.82;4.00;;;;;;;17.01;59.66;100606.09;7686219;32;37709;-75
2023/09/04 05:45:21;;;;;;;7.82;4.37;;;;;;;17.21;59.66;100610.53;7686046;32;38983;-73
2023/09/04 05:49:37;;;;;;;11.93;4.10;;;;;;;17.22;60.52;100601.12;7686130;32;39856;-74
2023/09/04 05:53:53;;;;;;;10.55;3.92;;;;;;;17.63;59.84;100600.53;7686041;32;38002;-81
2023/09/04 05:58:13;;;;;;;7.47;4.18;;;;;;;17.64;59.14;100602.19;7686098;32;37055;-80
2023/09/04 06:02:29;;;;;;;7.30;4.15;;;;;;;17.83;58.46;100599.41;7685836;32;39423;-80
2023/09/04 06:06:45;;;;;;;7.68;4.12;;;;;;;17.96;58.30;100597.03;7685937;32;40810;-81
2023/09/04 06:11:02;;;;;;;7.70;4.45;;;;;;;18.11;57.89;100598.69;7685784;32;38564;-80
2023/09/04 06:15:19;;;;;;;6.12;3.90;;;;;;;18.27;57.39;100602.00;7684978;32;37628;-79
2023/09/04 06:19:35;;;;;;;9.23;4.03;;;;;;;18.35;57.38;100604.88;7685370;32;39227;-80
2023/09/04 06:23:51;;;;;;;5.80;3.58;;;;;;;18.58;56.69;100602.25;7659678;32;40025;-80
2023/09/04 06:28:12;;;;;;;7.03;3.67;;;;;;;18.52;56.74;100596.00;7659229;32;38042;-79
2023/09/04 06:32:28;;;;;;;5.75;3.42;;;;;;;18.65;56.74;100604.59;7659628;32;37737;-81
2023/09/04 06:36:44;;;;;;;8.10;3.65;;;;;;;18.81;56.30;100610.63;7659427;32;39736;-80
2023/09/04 06:41:00;;;;;;;6.28;3.75;;;;;;;19.05;54.81;100611.25;7681372;32;39765;-80
2023/09/04 06:45:17;;;;;;;6.28;3.22;;;;;;;19.28;53.97;100608.56;7685282;32;37763;-80
2023/09/04 06:49:33;;;;;;;7.50;3.83;;;;;;;19.45;53.98;100600.41;7684973;32;37674;-80
2023/09/04 06:53:49;;;;;;;7.28;4.05;;;;;;;19.57;53.51;100621.19;7685313;32;39239;-80
2023/09/04 06:58:05;;;;;;;7.35;3.90;;;;;;;19.66;52.83;100619.28;7685329;32;40804;-82
2023/09/04 07:02:21;;;;;;;9.00;4.60;;;;;;;19.86;52.66;100623.56;7685226;32;37982;-81
2023/09/04 07:06:38;;;;;;;8.48;4.40;;;;;;;19.93;52.49;100626.69;7684757;32;37269;-80
2023/09/04 07:10:54;;;;;;;7.37;4.28;;;;;;;19.89;52.97;100629.28;7684652;32;39242;-80
2023/09/04 07:15:10;;;;;;;6.43;3.80;;;;;;;19.88;52.87;100630.41;7685421;32;40567;-80
2023/09/04 07:19:26;;;;;;;6.40;3.90;;;;;;;20.27;53.15;100639.16;7684484;32;38211;-82
2023/09/04 07:23:43;;;;;;;8.75;3.30;;;;;;;20.47;51.64;100629.47;7685220;32;37976;-74
2023/09/04 07:27:59;;;;;;;6.95;3.47;;;;;;;19.99;52.77;100644.00;7684050;32;39167;-74
2023/09/04 07:32:15;;;;;;;8.90;3.92;;;;;;;20.49;52.41;100629.16;7684993;32;39919;-84
2023/09/04 07:36:32;;;;;;;7.20;4.60;;;;;;;20.71;51.33;100628.31;7684571;32;38092;-84
2023/09/04 07:40:58;;;;;;;6.87;3.80;;;;;;;20.23;52.95;100630.66;7685128;32;36948;-82
2023/09/04 07:45:15;;;;;;;6.10;4.03;;;;;;;20.14;52.57;100627.00;7684899;32;40331;-84
2023/09/04 07:49:32;;;;;;;8.65;4.10;;;;;;;19.85;53.11;100628.28;7684594;32;39957;-83
2023/09/04 07:53:49;;;;;;;11.68;3.95;;;;;;;20.59;51.55;100613.09;7684162;32;38454;-83
2023/09/04 07:58:06;;;;;;;10.85;3.50;;;;;;;20.68;50.25;100607.63;7684813;32;37431;-83
2023/09/04 08:02:22;;;;;;;8.07;3.65;;;;;;;21.28;49.46;100605.31;7684685;32;39096;-84
2023/09/04 08:06:39;;;;;;;5.05;3.47;;;;;;;21.39;48.76;100626.84;7684666;32;39904;-84
2023/09/04 08:10:56;;;;;;;6.28;3.75;;;;;;;21.73;47.86;100621.66;7675348;32;38123;-84
2023/09/04 08:15:12;;;;;;;5.70;3.47;;;;;;;21.92;47.25;100607.44;7672397;32;36981;-83
2023/09/04 08:19:29;;;;;;;5.68;2.97;;;;;;;21.63;46.85;100619.22;7684035;32;39869;-85
2023/09/04 08:23:45;;;;;;;8.45;3.20;;;;;;;22.39;45.21;100609.53;7684200;32;40776;-85
2023/09/04 08:28:02;;;;;;;8.70;3.08;;;;;;;22.15;44.58;100618.38;7682591;32;38073;-86
2023/09/04 08:32:19;;;;;;;6.22;3.47;;;;;;;22.19;44.46;100599.91;7677255;32;38196;-85
2023/09/04 08:36:35;;;;;;;5.30;2.83;;;;;;;22.61;43.53;100605.66;7673874;32;40221;-85
2023/09/04 08:40:54;;;;;;;5.90;2.67;;;;;;;22.60;45.28;100609.59;7669523;32;39897;-85
2023/09/04 08:45:12;;;;;;;5.03;2.67;;;;;;;22.97;43.11;100607.94;7668619;32;38660;-85
2023/09/04 08:49:28;;;;;;;5.47;2.70;;;;;;;23.08;41.51;100611.19;7679842;32;36896;-85
2023/09/04 08:53:49;;;;;;;5.03;2.40;;;;;;;22.60;41.35;100609.59;7669021;32;39752;-85
2023/09/04 08:58:06;;;;;;;5.35;2.67;;;;;;;23.21;39.39;100600.94;7680093;32;40832;-87
2023/09/04 09:02:23;;;;;;;6.35;2.65;;;;;;;22.57;38.97;100602.75;7676451;32;38061;-86
2023/09/04 09:06:39;;;;;;;5.40;2.60;;;;;;;22.77;37.84;100605.94;7674688;32;37568;-84
2023/09/04 09:10:58;;;;;;;6.95;2.60;;;;;;;23.20;37.29;100594.59;7675468;32;39293;-86
2023/09/04 09:15:17;;;;;;;5.25;2.37;;;;;;;23.14;37.17;100601.47;7679044;32;39697;-86
2023/09/04 09:19:37;;;;;;;2.83;2.20;;;;;;;23.69;37.28;100598.78;7686481;32;37878;-86
2023/09/04 09:24:25;;;;;;;3.92;2.20;;;;;;;23.77;37.89;100600.69;7685533;32;37697;-85
2023/09/04 09:28:44;;;;;;;3.75;2.40;;;;;;;24.19;36.48;100595.03;7676915;32;39328;-85
2023/09/04 09:33:12;;;;;;;3.58;2.22;;;;;;;24.16;37.39;100598.50;7685379;32;40000;-82
2023/09/04 09:37:33;;;;;;;9.48;2.50;;;;;;;24.47;36.04;100602.75;7688226;32;39288;-84
2023/09/04 09:41:49;;;;;;;6.28;1.92;;;;;;;24.91;35.15;100597.47;7686308;32;36881;-83
2023/09/04 09:46:08;;;;;;;3.95;2.45;;;;;;;25.13;35.46;100596.16;7688370;32;39486;-85
2023/09/04 09:50:25;;;;;;;3.78;2.00;;;;;;;24.86;33.81;100595.72;7695571;32;39932;-84
2023/09/04 09:54:47;;;;;;;4.05;2.10;;;;;;;25.50;34.85;100590.53;7684867;32;38579;-84
2023/09/04 09:59:04;;;;;;;3.25;2.40;;;;;;;25.44;34.67;100587.16;7686165;32;36937;-81
2023/09/04 10:03:20;;;;;;;4.35;2.33;;;;;;;25.70;33.94;100585.09;7667581;32;39202;-83
2023/09/04 10:07:38;;;;;;;4.57;2.10;;;;;;;26.09;34.69;100591.00;7659523;32;40639;-83
2023/09/04 10:12:13;;;;;;;2.40;1.75;;;;;;;26.64;34.23;100582.84;7658303;32;38748;-83
2023/09/04 10:16:36;;;;;;;3.03;1.80;;;;;;;27.05;26.12;100566.63;7684409;32;37699;-83
2023/09/04 10:20:53;;;;;;;3.60;1.70;;;;;;;27.97;25.77;100566.16;7684690;32;39053;-85
2023/09/04 10:25:11;;;;;;;2.42;1.73;;;;;;;27.99;21.30;100559.00;7685788;32;40800;-81
2023/09/04 10:29:29;;;;;;;4.90;1.80;;;;;;;28.29;24.62;100552.75;7683608;32;38783;-80
2023/09/04 10:33:45;;;;;;;3.20;1.48;;;;;;;28.10;24.10;100554.41;7685359;32;37686;-79
2023/09/04 10:38:01;;;;;;;2.58;1.40;;;;;;;28.42;22.62;100548.56;7684553;32;40126;-80
2023/09/04 10:42:18;;;;;;;4.53;1.70;;;;;;;28.08;22.11;100545.56;7684189;32;39978;-81
2023/09/04 10:46:34;;;;;;;4.55;1.65;;;;;;;28.72;23.66;100542.25;7684387;32;38459;-80
2023/09/04 10:50:50;;;;;;;2.12;1.48;;;;;;;28.93;21.74;100538.94;7685625;32;37595;-80
2023/09/04 10:55:13;;;;;;;3.28;1.62;;;;;;;29.55;22.27;100544.19;7685571;32;39035;-80
2023/09/04 10:59:31;;;;;;;3.50;1.60;;;;;;;30.21;21.72;100532.44;7685452;32;40017;-80
2023/09/04 11:03:48;;;;;;;4.70;1.83;;;;;;;30.71;20.65;100544.12;7685420;32;38005;-80
2023/09/04 11:08:25;;;;;;;2.78;1.67;;;;;;;30.44;20.37;100539.88;7684193;32;37568;-81
2023/09/04 11:12:44;;;;;;;3.22;1.60;;;;;;;30.66;21.06;100536.03;7676836;32;39525;-80
2023/09/04 11:17:03;;;;;;;4.00;1.60;;;;;;;31.01;21.22;100540.31;7672154;32;39725;-80
2023/09/04 11:21:21;;;;;;;3.33;1.75;;;;;;;31.33;20.05;100528.41;7670314;32;37991;-80
2023/09/04 11:25:37;;;;;;;2.33;1.65;;;;;;;31.54;20.49;100521.25;7670188;32;37079;-80
2023/09/04 11:29:54;;;;;;;3.92;1.70;;;;;;;31.85;20.26;100518.91;7672913;32;39964;-81
2023/09/04 11:34:19;;;;;;;2.92;1.65;;;;;;;31.94;20.42;100511.69;7670646;32;40696;-80
2023/09/04 11:38:38;;;;;;;2.65;1.60;;;;;;;31.70;19.93;100518.91;7669681;32;37955;-80
2023/09/04 11:42:55;;;;;;;3.03;1.65;;;;;;;30.81;20.99;100530.53;7670981;32;36742;-81
2023/09/04 11:47:11;;;;;;;4.10;1.67;;;;;;;30.75;21.11;100529.25;7678099;32;39977;-81
2023/09/04 11:51:28;;;;;;;5.32;1.55;;;;;;;30.33;21.72;100517.28;7684854;32;39977;-79
2023/09/04 11:55:46;;;;;;;5.32;1.80;;;;;;;29.80;22.46;100528.84;7682700;32;37993;-76
2023/09/04 12:00:06;;;;;;;3.25;1.70;;;;;;;30.82;21.72;100520.84;7670063;32;35855;-78
2023/09/04 12:04:24;;;;;;;6.83;1.93;;;;;;;31.41;20.99;100513.12;7669958;32;39237;-78
2023/09/04 12:08:40;;;;;;;2.85;1.75;;;;;;;31.60;20.83;100508.41;7674114;32;40761;-78
2023/09/04 12:12:56;;;;;;;3.30;1.92;;;;;;;31.59;20.26;100506.78;7684526;32;38658;-71
2023/09/04 12:17:13;;;;;;;3.37;1.60;;;;;;;31.81;20.89;100497.16;7684586;32;37806;-72
2023/09/04 12:21:29;;;;;;;4.70;1.92;;;;;;;30.75;21.70;100498.31;7684704;32;40087;-72
2023/09/04 12:25:45;;;;;;;3.30;1.58;;;;;;;31.31;21.29;100491.37;7684232;32;40018;-71
2023/09/04 12:30:04;;;;;;;3.40;1.80;;;;;;;31.26;22.11;100483.31;7684156;32;38029;-71
2023/09/04 12:34:25;;;;;;;4.03;1.75;;;;;;;31.74;20.33;100471.78;7684251;32;37773;-71
2023/09/04 12:38:41;;;;;;;2.53;1.67;;;;;;;31.74;21.44;100463.34;7683605;32;40001;-72
2023/09/04 12:42:59;;;;;;;3.85;1.80;;;;;;;32.24;20.82;100468.22;7670761;32;40042;-73
2023/09/04 12:47:15;;;;;;;3.62;1.60;;;;;;;31.70;20.92;100467.34;7664065;32;38867;-71
2023/09/04 12:51:31;;;;;;;2.65;1.70;;;;;;;31.53;20.03;100463.28;7669708;32;37692;-71
2023/09/04 12:55:47;;;;;;;1.95;1.67;;;;;;;32.36;21.00;100452.88;7680406;32;40065;-71
2023/09/04 13:00:06;;;;;;;3.05;1.60;;;;;;;32.39;19.75;100457.69;7668827;32;38645;-70
2023/09/04 13:04:23;;;;;;;3.75;1.60;;;;;;;32.89;19.71;100457.63;7670096;32;37848;-70
2023/09/04 13:08:40;;;;;;;2.30;1.42;;;;;;;32.86;19.75;100454.81;7668569;32;36869;-71
2023/09/04 13:12:56;;;;;;;3.28;1.62;;;;;;;32.35;19.30;100435.12;7666556;32;39226;-70
2023/09/04 13:17:12;;;;;;;4.55;1.83;;;;;;;32.99;19.50;100438.22;7669929;32;39664;-79
2023/09/04 13:21:29;;;;;;;4.70;1.50;;;;;;;32.23;19.63;100424.28;7668619;32;38727;-81
2023/09/04 13:25:45;;;;;;;3.12;1.60;;;;;;;32.85;20.24;100427.78;7668952;32;37661;-83
2023/09/04 13:30:02;;;;;;;2.15;1.60;;;;;;;33.27;18.00;100420.34;7669331;32;39063;-80
2023/09/04 13:34:19;;;;;;;2.72;1.58;;;;;;;32.59;19.51;100431.88;7674483;32;39780;-80
2023/09/04 13:38:36;;;;;;;2.72;1.70;;;;;;;32.57;19.83;100427.44;7674163;32;37814;-81
2023/09/04 13:42:54;;;;;;;4.12;1.65;;;;;;;33.30;18.87;100419.53;7680423;32;37130;-81
2023/09/04 13:47:24;;;;;;;2.55;1.48;;;;;;;33.17;18.89;100410.72;7656350;32;39408;-81
2023/09/04 13:51:41;;;;;;;2.30;1.65;;;;;;;33.54;18.59;100412.09;7679849;32;39807;-79
2023/09/04 13:55:57;;;;;;;3.03;1.62;;;;;;;34.01;19.00;100406.91;7685809;32;38740;-78
2023/09/04 14:00:15;;;;;;;2.40;1.50;;;;;;;34.00;18.34;100405.28;7685630;32;37559;-81
2023/09/04 14:04:31;;;;;;;4.50;1.60;;;;;;;34.14;18.56;100410.00;7685695;32;39992;-81
2023/09/04 14:08:48;;;;;;;2.03;1.62;;;;;;;34.31;18.04;100396.16;7685912;32;40137;-81
2023/09/04 14:13:05;;;;;;;2.33;1.65;;;;;;;34.29;17.83;100405.06;7684948;32;37964;-79
2023/09/04 14:17:21;;;;;;;4.30;1.87;;;;;;;33.28;18.33;100405.81;7685848;32;37655;-79
2023/09/04 14:21:38;;;;;;;3.25;1.87;;;;;;;32.62;19.39;100414.97;7685066;32;39231;-79
2023/09/04 14:25:55;;;;;;;2.95;1.80;;;;;;;32.69;19.85;100408.50;7685459;32;39730;-79
2023/09/04 14:30:12;;;;;;;3.80;2.00;;;;;;;32.67;20.20;100403.25;7685417;32;38927;-79
2023/09/04 14:34:28;;;;;;;2.05;1.65;;;;;;;32.05;20.31;100407.41;7685188;32;36807;-79
2023/09/04 14:38:45;;;;;;;2.50;1.60;;;;;;;32.07;20.71;100407.00;7685590;32;39304;-81
2023/09/04 14:43:02;;;;;;;3.30;1.65;;;;;;;32.03;21.36;100412.59;7684501;32;40863;-81
2023/09/04 14:47:20;;;;;;;3.12;1.60;;;;;;;32.27;19.90;100415.81;7685255;32;38653;-81
2023/09/04 14:51:36;;;;;;;2.45;1.60;;;;;;;32.62;20.80;100420.59;7684998;32;38942;-82
2023/09/04 14:55:56;;;;;;;2.87;1.77;;;;;;;32.01;21.01;100415.81;7685177;32;39187;-82
2023/09/04 15:00:13;;;;;;;3.08;1.80;;;;;;;31.40;22.01;100417.75;7684763;32;40620;-81
2023/09/04 15:04:30;;;;;;;3.20;1.83;;;;;;;31.57;21.41;100413.41;7684566;32;37960;-82
2023/09/04 15:08:47;;;;;;;2.55;1.42;;;;;;;31.41;21.11;100413.75;7685271;32;36925;-82
2023/09/04 15:13:04;;;;;;;2.78;1.48;;;;;;;31.24;21.23;100415.31;7684431;32;39350;-82
2023/09/04 15:17:21;;;;;;;3.75;1.35;;;;;;;31.13;21.78;100428.53;7684974;32;40758;-81
2023/09/04 15:21:39;;;;;;;4.45;1.75;;;;;;;30.67;23.01;100422.31;7685073;32;38697;-81
2023/09/04 15:25:56;;;;;;;3.03;1.80;;;;;;;30.57;23.60;100431.50;7684396;32;37614;-81
2023/09/04 15:30:13;;;;;;;7.28;1.73;;;;;;;30.45;23.00;100441.06;7684942;32;39164;-81
2023/09/04 15:34:29;;;;;;;3.90;1.95;;;;;;;30.40;22.78;100444.22;7684416;32;40096;-82
2023/09/04 15:38:45;;;;;;;2.50;1.52;;;;;;;29.01;24.04;100462.09;7684817;32;39039;-74
2023/09/04 15:43:04;;;;;;;5.07;1.80;;;;;;;29.13;24.40;100454.59;7683955;32;37695;-73
2023/09/04 15:47:21;;;;;;;5.05;1.90;;;;;;;28.99;24.67;100449.63;7684445;32;39299;-73
2023/09/04 15:51:37;;;;;;;3.53;1.62;;;;;;;28.75;24.93;100448.94;7684449;32;39928;-74
2023/09/04 15:55:55;;;;;;;2.92;1.80;;;;;;;28.40;25.46;100449.19;7683958;32;37937;-73
2023/09/04 16:00:12;;;;;;;5.57;1.90;;;;;;;28.16;25.65;100459.62;7684584;32;35983;-87
2023/09/04 16:04:29;;;;;;;3.50;1.62;;;;;;;27.83;26.97;100460.22;7684073;32;39048;-87
2023/09/04 16:08:45;;;;;;;2.58;1.67;;;;;;;27.62;27.07;100466.25;7684266;32;40032;-88
2023/09/04 16:13:02;;;;;;;4.22;2.03;;;;;;;27.24;28.19;100468.69;7683284;32;37649;-87
2023/09/04 16:17:19;;;;;;;2.53;1.80;;;;;;;26.88;28.01;100467.94;7683762;32;36798;-87
2023/09/04 16:21:36;;;;;;;3.87;1.92;;;;;;;26.84;28.80;100472.66;7684316;32;40006;-87
2023/09/04 16:25:56;;;;;;;2.85;1.75;;;;;;;26.84;28.40;100472.66;7683758;32;40506;-87
2023/09/04 16:30:12;;;;;;;2.25;1.52;;;;;;;26.55;28.01;100471.19;7683838;32;37962;-87
2023/09/04 16:34:29;;;;;;;2.65;1.80;;;;;;;26.16;29.26;100476.63;7683510;32;37665;-87
2023/09/04 16:38:46;;;;;;;6.97;1.90;;;;;;;26.39;28.50;100480.41;7683443;32;40102;-86
2023/09/04 16:43:03;;;;;;;2.70;1.70;;;;;;;26.30;29.07;100490.97;7683606;32;39962;-87
2023/09/04 16:47:19;;;;;;;2.37;1.65;;;;;;;26.09;29.24;100491.22;7683299;32;37892;-87
2023/09/04 16:51:36;;;;;;;4.10;1.80;;;;;;;25.81;29.64;100494.87;7683701;32;36893;-86
2023/09/04 16:56:10;;;;;;;5.22;2.12;;;;;;;25.81;29.15;100505.22;7683234;32;38884;-86
2023/09/04 17:00:28;;;;;;;2.70;1.80;;;;;;;25.54;29.64;100498.50;7683510;32;39839;-86
2023/09/04 17:04:45;;;;;;;3.17;1.73;;;;;;;25.54;30.33;100499.31;7682936;32;37578;-87
2023/09/04 17:09:01;;;;;;;3.40;1.67;;;;;;;25.52;30.08;100496.06;7682992;32;36893;-87
2023/09/04 17:13:18;;;;;;;3.10;1.60;;;;;;;25.52;29.17;100503.62;7682066;32;38748;-87
2023/09/04 17:17:34;;;;;;;13.82;8.15;;;;;;;25.37;29.02;100497.66;7682627;32;40718;-86
2023/09/04 17:21:51;;;;;;;4.97;2.78;;;;;;;25.12;29.29;100500.50;7682808;32;38944;-85
2023/09/04 17:26:08;;;;;;;3.30;2.10;;;;;;;24.89;30.08;100511.37;7685497;32;37794;-85
2023/09/04 17:30:24;;;;;;;3.95;1.90;;;;;;;24.83;30.01;100515.53;7685790;32;39196;-86
2023/09/04 17:34:41;;;;;;;3.50;1.90;;;;;;;24.52;29.99;100518.91;7685781;32;40831;-86
2023/09/04 17:38:57;;;;;;;3.45;2.12;;;;;;;24.43;30.40;100521.03;7685039;32;38138;-85
2023/09/04 17:43:14;;;;;;;4.70;1.70;;;;;;;24.41;30.94;100523.34;7686067;32;37731;-87
2023/09/04 17:47:30;;;;;;;4.12;1.80;;;;;;;24.39;31.33;100529.25;7686162;32;39370;-86
2023/09/04 17:51:48;;;;;;;2.70;1.83;;;;;;;24.19;31.88;100539.34;7686097;32;40853;-86
2023/09/04 17:56:04;;;;;;;4.43;2.15;;;;;;;24.19;32.29;100539.34;7686144;32;38850;-87
2023/09/04 18:00:20;;;;;;;4.90;1.80;;;;;;;24.07;32.19;100542.09;7686136;32;36675;-86
2023/09/04 18:04:37;;;;;;;3.15;1.80;;;;;;;23.81;33.19;100540.41;7684926;32;40068;-85
2023/09/04 18:08:53;;;;;;;2.25;1.55;;;;;;;23.90;32.94;100545.87;7684992;32;40043;-86
2023/09/04 18:13:10;;;;;;;4.82;1.85;;;;;;;23.83;33.12;100548.41;7685732;32;38772;-85
2023/09/04 18:17:26;;;;;;;2.20;1.52;;;;;;;23.48;34.41;100555.09;7686222;32;37869;-87
2023/09/04 18:21:42;;;;;;;4.50;2.30;;;;;;;23.11;35.04;100545.72;7686136;32;37685;-87
2023/09/04 18:25:59;;;;;;;3.80;1.98;;;;;;;23.09;35.36;100548.03;7685681;32;39787;-88
2023/09/04 18:30:15;;;;;;;4.25;2.28;;;;;;;23.03;35.20;100555.75;7684978;32;37929;-86
2023/09/04 18:34:31;;;;;;;2.40;1.62;;;;;;;22.94;35.51;100555.81;7684595;32;36831;-85
2023/09/04 18:38:48;;;;;;;2.47;1.83;;;;;;;22.79;35.52;100557.19;7684528;32;39254;-86
2023/09/04 18:43:06;;;;;;;2.70;1.80;;;;;;;22.79;35.41;100562.75;7685169;32;40830;-86
2023/09/04 18:47:22;;;;;;;2.22;1.90;;;;;;;22.49;36.69;100564.69;7685335;32;37930;-87
2023/09/04 18:51:38;;;;;;;3.42;1.90;;;;;;;22.13;37.48;100569.53;7685557;32;37217;-86
2023/09/04 18:55:56;;;;;;;3.83;2.08;;;;;;;21.98;38.04;100575.63;7685509;32;39730;-89
2023/09/04 19:00:12;;;;;;;3.87;1.95;;;;;;;22.10;37.65;100578.53;7683654;32;39862;-86
2023/09/04 19:04:28;;;;;;;3.65;2.20;;;;;;;21.92;37.84;100579.69;7684494;32;38494;-85
2023/09/04 19:08:44;;;;;;;13.25;2.60;;;;;;;22.06;37.44;100585.87;7686029;32;37523;-84
2023/09/04 19:13:02;;;;;;;4.87;2.00;;;;;;;22.17;37.27;100580.00;7685246;32;39863;-85
2023/09/04 19:17:21;;;;;;;2.65;1.85;;;;;;;21.80;38.06;100587.88;7685205;32;40829;-86
2023/09/04 19:21:38;;;;;;;2.95;1.62;;;;;;;21.67;38.09;100601.59;7684965;32;38710;-86
2023/09/04 19:25:58;;;;;;;3.53;1.90;;;;;;;21.83;37.39;100596.37;7685133;32;37739;-85
2023/09/04 19:30:14;;;;;;;2.72;2.20;;;;;;;21.72;37.82;100598.66;7685005;32;39946;-85
2023/09/04 19:34:31;;;;;;;2.87;1.80;;;;;;;21.67;37.98;100590.50;7692899;32;40583;-85
2023/09/04 19:38:47;;;;;;;4.85;1.98;;;;;;;21.69;37.84;100593.75;7711527;32;38789;-84
2023/09/04 19:43:06;;;;;;;4.85;2.30;;;;;;;21.63;37.76;100600.63;7711413;32;37851;-89
2023/09/04 19:47:22;;;;;;;4.10;2.67;;;;;;;21.28;37.51;100605.31;7711317;32;39262;-87
2023/09/04 19:51:38;;;;;;;3.47;2.05;;;;;;;21.44;37.94;100602.87;7696380;32;39606;-86
2023/09/04 19:55:57;;;;;;;3.65;2.12;;;;;;;21.23;38.69;100614.62;7684659;32;38736;-87